createdAt,value
2022-08-18T00:01:41.784Z,101367.97
2022-08-18T00:07:06.594Z,101370.97
2022-08-18T00:12:33.655Z,101372.25
2022-08-18T00:17:56.870Z,101370.13
2022-08-18T00:23:20.131Z,101367.69
2022-08-18T00:28:44.690Z,101370.25
2022-08-18T00:34:08.107Z,101363.66
2022-08-18T00:39:35.064Z,101370.59
2022-08-18T00:45:06.946Z,101373.06
2022-08-18T00:50:34.397Z,101379.00
2022-08-18T00:55:58.733Z,101375.41
2022-08-18T01:01:26.239Z,101375.56
2022-08-18T01:06:53.099Z,101366.16
2022-08-18T01:12:44.101Z,101355.47
2022-08-18T01:18:20.798Z,101358.88
2022-08-18T01:23:46.509Z,101346.81
2022-08-18T01:29:11.869Z,101348.88
2022-08-18T01:34:42.177Z,101361.34
2022-08-18T01:41:25.076Z,101376.31
2022-08-18T01:45:51.879Z,101363.06
2022-08-18T01:51:15.011Z,101356.34
2022-08-18T01:56:40.724Z,101358.75
2022-08-18T02:02:04.466Z,101348.50
2022-08-18T02:07:32.641Z,101339.78
2022-08-18T02:13:01.165Z,101328.69
2022-08-18T02:18:47.494Z,101329.28
2022-08-18T02:24:11.744Z,101340.19
2022-08-18T02:29:36.706Z,101348.53
2022-08-18T02:35:00.098Z,101342.63
2022-08-18T02:40:23.200Z,101339.59
2022-08-18T02:45:47.599Z,101345.56
2022-08-18T02:51:12.485Z,101356.16
2022-08-18T02:56:41.292Z,101364.88
2022-08-18T03:02:07.570Z,101374.50
2022-08-18T03:07:30.692Z,101370.25
2022-08-18T03:12:53.762Z,101375.47
2022-08-18T03:18:18.274Z,101388.50
2022-08-18T03:23:41.767Z,101390.75
2022-08-18T03:29:05.523Z,101386.00
2022-08-18T03:34:30.712Z,101386.31
2022-08-18T03:39:54.033Z,101393.63
2022-08-18T03:45:17.770Z,101393.56
2022-08-18T03:50:42.845Z,101389.81
2022-08-18T03:56:09.456Z,101380.72
2022-08-18T04:01:34.674Z,101375.50
2022-08-18T04:07:01.067Z,101382.41
2022-08-18T04:12:24.619Z,101379.97
2022-08-18T04:17:56.033Z,101383.66
2022-08-18T04:23:28.833Z,101381.00
2022-08-18T04:28:55.203Z,101380.22
2022-08-18T04:34:18.696Z,101366.63
2022-08-18T04:39:43.630Z,101398.16
2022-08-18T04:45:08.246Z,101392.25
2022-08-18T04:50:31.455Z,101387.31
2022-08-18T04:55:57.112Z,101394.91
2022-08-18T05:01:21.753Z,101403.69
2022-08-18T05:06:46.471Z,101384.28
2022-08-18T05:12:13.451Z,101399.41
2022-08-18T05:17:39.609Z,101394.94
2022-08-18T05:23:02.837Z,101393.84
2022-08-18T05:28:27.544Z,101387.34
2022-08-18T05:33:51.789Z,101366.66
2022-08-18T05:39:20.971Z,101385.97
2022-08-18T05:44:47.689Z,101394.41
2022-08-18T05:50:12.950Z,101406.84
2022-08-18T05:55:57.969Z,101379.75
2022-08-18T06:01:25.909Z,101399.41
2022-08-18T06:06:49.574Z,101401.22
2022-08-18T06:12:23.640Z,101404.63
2022-08-18T06:18:00.411Z,101391.00
2022-08-18T06:23:29.009Z,101403.75
2022-08-18T06:29:16.014Z,101408.13
2022-08-18T06:34:46.226Z,101413.00
2022-08-18T06:40:09.490Z,101415.81
2022-08-18T06:45:39.595Z,101416.94
2022-08-18T06:51:05.320Z,101382.44
2022-08-18T06:56:35.727Z,101416.09
2022-08-18T07:02:01.997Z,101416.00
2022-08-18T07:07:40.073Z,101428.00
2022-08-18T07:13:26.581Z,101434.91
2022-08-18T07:18:51.427Z,101436.28
2022-08-18T07:24:26.928Z,101432.78
2022-08-18T07:30:05.950Z,101436.88
2022-08-18T07:35:35.498Z,101430.19
2022-08-18T07:41:02.221Z,101444.59
2022-08-18T07:46:30.417Z,101428.50
2022-08-18T07:51:58.694Z,101435.44
2022-08-18T07:57:35.429Z,101431.75
2022-08-18T08:03:15.987Z,101426.25
2022-08-18T08:08:44.541Z,101435.16
2022-08-18T08:14:21.699Z,101437.03
2022-08-18T08:20:02.927Z,101439.28
2022-08-18T08:25:45.838Z,101441.16
2022-08-18T08:31:35.888Z,101432.84
2022-08-18T08:37:01.501Z,101425.88
2022-08-18T08:42:36.363Z,101417.72
2022-08-18T08:48:09.549Z,101419.03
2022-08-18T08:53:36.597Z,101427.31
2022-08-18T08:59:01.733Z,101422.53
2022-08-18T09:04:37.190Z,101428.88
2022-08-18T09:10:24.355Z,101429.41
2022-08-18T09:16:13.357Z,101423.59
2022-08-18T09:21:44.379Z,101424.03
2022-08-18T09:27:16.893Z,101430.00
2022-08-18T09:32:58.090Z,101425.28
2022-08-18T09:38:54.507Z,101417.19
2022-08-18T09:45:02.535Z,101429.72
2022-08-18T09:50:55.480Z,101440.38
2022-08-18T09:56:58.306Z,101432.25
2022-08-18T10:03:10.328Z,101433.41
2022-08-18T10:09:02.642Z,101429.03
2022-08-18T10:15:10.318Z,101426.59
2022-08-18T10:20:41.333Z,101420.81
2022-08-18T10:26:10.065Z,101410.66
2022-08-18T10:32:19.882Z,101428.09
2022-08-18T10:37:46.029Z,101442.25
2022-08-18T10:43:45.466Z,101437.88
2022-08-18T10:49:08.800Z,101445.38
2022-08-18T10:54:51.692Z,101438.84
2022-08-18T11:00:20.935Z,101429.56
2022-08-18T11:05:44.243Z,101415.50
2022-08-18T11:17:02.747Z,101429.81
2022-08-18T11:28:19.105Z,101418.44
2022-08-18T11:33:42.567Z,101412.63
2022-08-18T11:39:10.298Z,101411.19
2022-08-18T11:44:42.362Z,101410.06
2022-08-18T11:50:11.635Z,101399.28
2022-08-18T11:55:34.983Z,101400.94
2022-08-18T12:01:01.670Z,101395.28
2022-08-18T12:06:28.206Z,101394.09
2022-08-18T12:11:55.755Z,101388.50
2022-08-18T12:17:20.527Z,101386.88
2022-08-18T12:22:46.184Z,101381.44
2022-08-18T12:34:00.602Z,101364.88
2022-08-18T12:39:24.953Z,101359.91
2022-08-18T12:44:48.281Z,101351.31
2022-08-18T12:50:12.784Z,101352.16
2022-08-18T13:01:23.590Z,101347.41
2022-08-18T13:06:59.453Z,101336.44
2022-08-18T13:12:25.549Z,101335.22
2022-08-18T13:17:50.347Z,101337.75
2022-08-18T13:23:24.549Z,101338.28
2022-08-18T13:28:55.073Z,101350.56
2022-08-18T13:34:20.645Z,101354.78
2022-08-18T13:39:45.244Z,101363.75
2022-08-18T13:45:24.567Z,101354.91
2022-08-18T13:50:52.335Z,101362.94
2022-08-18T13:56:17.954Z,101375.19
2022-08-18T14:01:49.958Z,101388.94
2022-08-18T14:07:19.168Z,101391.56
2022-08-18T14:12:53.968Z,101399.50
2022-08-18T14:18:17.070Z,101328.63
2022-08-18T14:24:10.638Z,101381.75
2022-08-18T14:29:46.829Z,101377.34
2022-08-18T14:35:31.981Z,101383.97
2022-08-18T14:40:55.427Z,101387.63
2022-08-18T14:51:44.974Z,101384.19
2022-08-18T14:57:09.565Z,101377.13
2022-08-18T15:02:34.311Z,101388.50
2022-08-18T15:07:58.757Z,101377.69
2022-08-18T15:13:26.403Z,101373.47
2022-08-18T15:18:51.082Z,101378.72
2022-08-18T15:24:39.671Z,101369.91
2022-08-18T15:30:05.629Z,101390.09
2022-08-18T15:35:34.425Z,101384.75
2022-08-18T15:40:59.809Z,101368.88
2022-08-18T15:46:29.673Z,101359.03
2022-08-18T15:51:54.830Z,101369.50
2022-08-18T15:57:36.004Z,101348.00
2022-08-18T16:03:02.761Z,101365.38
2022-08-18T16:08:27.611Z,101363.09
2022-08-18T16:13:51.029Z,101350.19
2022-08-18T16:19:14.459Z,101345.69
2022-08-18T16:24:39.067Z,101336.78
2022-08-18T16:30:04.566Z,101333.41
2022-08-18T16:35:28.018Z,101335.81
2022-08-18T16:40:52.514Z,101329.84
2022-08-18T16:46:18.518Z,101316.13
2022-08-18T16:51:44.715Z,101319.88
2022-08-18T16:57:09.308Z,101323.66
2022-08-18T17:02:50.163Z,101310.28
2022-08-18T17:08:13.904Z,101289.97
2022-08-18T17:13:38.847Z,101300.94
2022-08-18T17:19:02.130Z,101317.84
2022-08-18T17:24:31.993Z,101316.84
2022-08-18T17:30:06.999Z,101325.00
2022-08-18T17:35:35.710Z,101319.78
2022-08-18T17:40:58.995Z,101322.13
2022-08-18T17:46:28.179Z,101320.88
2022-08-18T17:51:55.211Z,101320.28
2022-08-18T17:57:24.869Z,101328.06
2022-08-18T18:02:49.546Z,101325.50
2022-08-18T18:08:12.680Z,101326.66
2022-08-18T18:13:35.770Z,101326.91
2022-08-18T18:19:03.406Z,101340.59
2022-08-18T18:24:31.750Z,101324.88
2022-08-18T18:29:57.958Z,101327.66
2022-08-18T18:35:27.698Z,101331.97
2022-08-18T18:40:56.385Z,101335.22
2022-08-18T18:46:31.733Z,101337.63
2022-08-18T18:52:04.336Z,101336.81
2022-08-18T18:57:39.809Z,101336.09
2022-08-18T19:03:08.074Z,101341.88
2022-08-18T19:08:39.633Z,101344.53
2022-08-18T19:14:07.455Z,101348.94
2022-08-18T19:19:38.245Z,101328.69
2022-08-18T19:25:08.946Z,101340.78
2022-08-18T19:30:34.485Z,101343.34
2022-08-18T19:36:02.096Z,101341.19
2022-08-18T19:41:39.017Z,101346.28
2022-08-18T19:47:08.433Z,101337.22
2022-08-18T19:52:46.464Z,101338.03
2022-08-18T19:58:32.007Z,101333.94
2022-08-18T20:04:05.767Z,101325.78
2022-08-18T20:09:38.848Z,101337.03
2022-08-18T20:15:09.859Z,101340.91
2022-08-18T20:20:34.424Z,101341.63
2022-08-18T20:25:57.552Z,101343.06
2022-08-18T20:31:24.110Z,101338.13
2022-08-18T20:36:48.222Z,101344.78
2022-08-18T20:42:55.844Z,101337.50
2022-08-18T20:48:29.213Z,101345.19
2022-08-18T20:54:04.119Z,101351.91
2022-08-18T20:59:40.094Z,101348.41
2022-08-18T21:05:07.502Z,101322.28
2022-08-18T21:10:32.951Z,101338.72
2022-08-18T21:15:56.816Z,101336.22
2022-08-18T21:21:26.871Z,101351.59
2022-08-18T21:26:50.455Z,101352.09
2022-08-18T21:32:19.339Z,101358.13
2022-08-18T21:37:43.857Z,101352.91
2022-08-18T21:43:07.546Z,101352.31
2022-08-18T21:48:33.511Z,101345.38
2022-08-18T21:54:00.979Z,101335.25
2022-08-18T21:59:24.102Z,101350.41
2022-08-18T22:04:48.364Z,101352.84
2022-08-18T22:10:41.271Z,101349.00
2022-08-18T22:16:24.556Z,101341.88
2022-08-18T22:21:49.871Z,101351.03
2022-08-18T22:27:20.246Z,101348.91
2022-08-18T22:32:46.407Z,101346.16
2022-08-18T22:38:09.705Z,101355.47
2022-08-18T22:43:37.419Z,101350.31
2022-08-18T22:49:00.564Z,101358.94
2022-08-18T22:54:24.224Z,101362.13
2022-08-18T22:59:48.650Z,101357.75
2022-08-18T23:05:13.050Z,101332.44
2022-08-18T23:10:36.244Z,101366.72
2022-08-18T23:16:30.324Z,101366.34
2022-08-18T23:21:45.314Z,101374.31
2022-08-18T23:27:09.356Z,101349.22
2022-08-18T23:32:33.912Z,101356.22
2022-08-18T23:37:57.116Z,101362.38
2022-08-18T23:43:20.609Z,101361.03
2022-08-18T23:48:49.561Z,101361.91
2022-08-18T23:54:14.369Z,101359.84
2022-08-18T23:59:37.586Z,101368.66
